sensor_id;sensor_type;location;lat;lon;timestamp;P1;durP1;ratioP1;P2;durP2;ratioP2
5785;SDS011;2919;48.630;9.000;2022-10-17T00:02:10;2.87;;;1.30;;
5785;SDS011;2919;48.630;9.000;2022-10-17T00:04:35;2.40;;;1.40;;
5785;SDS011;2919;48.630;9.000;2022-10-17T00:07:01;2.13;;;1.17;;
5785;SDS011;2919;48.630;9.000;2022-10-17T00:09:27;2.70;;;1.17;;
5785;SDS011;2919;48.630;9.000;2022-10-17T00:11:52;5.50;;;1.60;;
5785;SDS011;2919;48.630;9.000;2022-10-17T00:14:18;1.70;;;1.10;;
5785;SDS011;2919;48.630;9.000;2022-10-17T00:16:43;4.17;;;1.10;;
5785;SDS011;2919;48.630;9.000;2022-10-17T00:19:09;2.63;;;1.20;;
5785;SDS011;2919;48.630;9.000;2022-10-17T00:21:35;2.37;;;1.30;;
5785;SDS011;2919;48.630;9.000;2022-10-17T00:24:00;1.70;;;1.20;;
5785;SDS011;2919;48.630;9.000;2022-10-17T00:26:26;1.60;;;1.00;;
5785;SDS011;2919;48.630;9.000;2022-10-17T00:28:55;2.43;;;1.40;;
5785;SDS011;2919;48.630;9.000;2022-10-17T00:31:21;3.73;;;1.27;;
5785;SDS011;2919;48.630;9.000;2022-10-17T00:33:47;1.80;;;1.00;;
5785;SDS011;2919;48.630;9.000;2022-10-17T00:36:20;2.20;;;1.30;;
5785;SDS011;2919;48.630;9.000;2022-10-17T00:38:52;1.80;;;0.90;;
5785;SDS011;2919;48.630;9.000;2022-10-17T00:41:22;2.17;;;1.00;;
5785;SDS011;2919;48.630;9.000;2022-10-17T00:44:00;3.30;;;1.40;;
5785;SDS011;2919;48.630;9.000;2022-10-17T00:46:29;2.57;;;1.30;;
5785;SDS011;2919;48.630;9.000;2022-10-17T00:49:01;2.23;;;1.30;;
5785;SDS011;2919;48.630;9.000;2022-10-17T00:51:50;2.03;;;1.00;;
5785;SDS011;2919;48.630;9.000;2022-10-17T00:54:20;2.43;;;1.23;;
5785;SDS011;2919;48.630;9.000;2022-10-17T00:56:48;2.30;;;1.13;;
5785;SDS011;2919;48.630;9.000;2022-10-17T00:59:15;2.70;;;1.13;;
5785;SDS011;2919;48.630;9.000;2022-10-17T01:01:45;1.83;;;1.03;;
5785;SDS011;2919;48.630;9.000;2022-10-17T01:04:17;4.60;;;1.60;;
5785;SDS011;2919;48.630;9.000;2022-10-17T01:06:44;1.77;;;1.10;;
5785;SDS011;2919;48.630;9.000;2022-10-17T01:09:09;1.93;;;1.30;;
5785;SDS011;2919;48.630;9.000;2022-10-17T01:11:38;2.20;;;1.27;;
5785;SDS011;2919;48.630;9.000;2022-10-17T01:14:14;3.93;;;1.27;;
5785;SDS011;2919;48.630;9.000;2022-10-17T01:16:56;2.70;;;1.40;;
5785;SDS011;2919;48.630;9.000;2022-10-17T01:22:11;18.07;;;2.03;;
5785;SDS011;2919;48.630;9.000;2022-10-17T01:27:51;2.40;;;1.53;;
5785;SDS011;2919;48.630;9.000;2022-10-17T01:33:32;6.30;;;1.83;;
5785;SDS011;2919;48.630;9.000;2022-10-17T01:39:02;2.37;;;1.20;;
5785;SDS011;2919;48.630;9.000;2022-10-17T01:44:17;5.30;;;1.50;;
5785;SDS011;2919;48.630;9.000;2022-10-17T01:46:53;6.40;;;1.27;;
5785;SDS011;2919;48.630;9.000;2022-10-17T01:49:23;2.23;;;1.00;;
5785;SDS011;2919;48.630;9.000;2022-10-17T01:51:55;2.17;;;0.90;;
5785;SDS011;2919;48.630;9.000;2022-10-17T01:54:29;2.00;;;1.10;;
5785;SDS011;2919;48.630;9.000;2022-10-17T01:57:02;8.80;;;1.30;;
5785;SDS011;2919;48.630;9.000;2022-10-17T01:59:35;1.70;;;1.13;;
5785;SDS011;2919;48.630;9.000;2022-10-17T02:02:05;2.07;;;1.13;;
5785;SDS011;2919;48.630;9.000;2022-10-17T02:04:32;2.00;;;1.03;;
5785;SDS011;2919;48.630;9.000;2022-10-17T02:07:05;2.33;;;1.27;;
5785;SDS011;2919;48.630;9.000;2022-10-17T02:09:32;2.53;;;1.30;;
5785;SDS011;2919;48.630;9.000;2022-10-17T02:15:19;2.63;;;1.37;;
5785;SDS011;2919;48.630;9.000;2022-10-17T02:25:37;2.90;;;1.20;;
5785;SDS011;2919;48.630;9.000;2022-10-17T02:28:20;2.30;;;1.23;;
5785;SDS011;2919;48.630;9.000;2022-10-17T02:30:53;1.90;;;0.97;;
5785;SDS011;2919;48.630;9.000;2022-10-17T02:33:24;1.90;;;1.00;;
5785;SDS011;2919;48.630;9.000;2022-10-17T02:35:57;2.27;;;1.40;;
5785;SDS011;2919;48.630;9.000;2022-10-17T02:38:28;4.40;;;2.00;;
5785;SDS011;2919;48.630;9.000;2022-10-17T02:40:55;1.80;;;1.20;;
5785;SDS011;2919;48.630;9.000;2022-10-17T02:43:21;3.20;;;1.30;;
5785;SDS011;2919;48.630;9.000;2022-10-17T02:45:48;2.27;;;1.40;;
5785;SDS011;2919;48.630;9.000;2022-10-17T02:48:26;2.10;;;1.10;;
5785;SDS011;2919;48.630;9.000;2022-10-17T02:53:37;1.80;;;1.00;;
5785;SDS011;2919;48.630;9.000;2022-10-17T02:56:18;2.40;;;1.27;;
5785;SDS011;2919;48.630;9.000;2022-10-17T02:58:45;1.80;;;1.00;;
5785;SDS011;2919;48.630;9.000;2022-10-17T03:01:15;4.10;;;1.20;;
5785;SDS011;2919;48.630;9.000;2022-10-17T03:03:42;4.50;;;1.40;;
5785;SDS011;2919;48.630;9.000;2022-10-17T03:06:08;3.97;;;2.30;;
5785;SDS011;2919;48.630;9.000;2022-10-17T03:08:34;2.40;;;1.47;;
5785;SDS011;2919;48.630;9.000;2022-10-17T03:10:59;2.50;;;1.60;;
5785;SDS011;2919;48.630;9.000;2022-10-17T03:13:25;6.40;;;1.77;;
5785;SDS011;2919;48.630;9.000;2022-10-17T03:15:51;4.70;;;1.97;;
5785;SDS011;2919;48.630;9.000;2022-10-17T03:18:16;2.80;;;1.60;;
5785;SDS011;2919;48.630;9.000;2022-10-17T03:20:42;3.33;;;1.37;;
5785;SDS011;2919;48.630;9.000;2022-10-17T03:23:07;3.23;;;1.13;;
5785;SDS011;2919;48.630;9.000;2022-10-17T03:25:33;4.47;;;1.80;;
5785;SDS011;2919;48.630;9.000;2022-10-17T03:27:59;3.40;;;1.20;;
5785;SDS011;2919;48.630;9.000;2022-10-17T03:30:25;3.97;;;1.83;;
5785;SDS011;2919;48.630;9.000;2022-10-17T03:32:51;4.90;;;1.50;;
5785;SDS011;2919;48.630;9.000;2022-10-17T03:35:17;5.70;;;1.67;;
5785;SDS011;2919;48.630;9.000;2022-10-17T03:37:43;12.63;;;2.93;;
5785;SDS011;2919;48.630;9.000;2022-10-17T03:40:08;2.20;;;1.40;;
5785;SDS011;2919;48.630;9.000;2022-10-17T03:42:34;2.83;;;1.60;;
5785;SDS011;2919;48.630;9.000;2022-10-17T03:45:00;3.67;;;1.57;;
5785;SDS011;2919;48.630;9.000;2022-10-17T03:47:26;4.20;;;2.13;;
5785;SDS011;2919;48.630;9.000;2022-10-17T03:49:52;4.00;;;2.03;;
5785;SDS011;2919;48.630;9.000;2022-10-17T03:52:18;3.33;;;1.40;;
5785;SDS011;2919;48.630;9.000;2022-10-17T03:54:44;2.67;;;1.37;;
5785;SDS011;2919;48.630;9.000;2022-10-17T03:57:09;2.40;;;1.27;;
5785;SDS011;2919;48.630;9.000;2022-10-17T03:59:35;4.50;;;1.60;;
5785;SDS011;2919;48.630;9.000;2022-10-17T04:02:01;1.70;;;0.90;;
5785;SDS011;2919;48.630;9.000;2022-10-17T04:04:26;4.87;;;1.53;;
5785;SDS011;2919;48.630;9.000;2022-10-17T04:06:52;15.17;;;1.60;;
5785;SDS011;2919;48.630;9.000;2022-10-17T04:09:18;2.73;;;1.40;;
5785;SDS011;2919;48.630;9.000;2022-10-17T04:11:43;3.33;;;1.30;;
5785;SDS011;2919;48.630;9.000;2022-10-17T04:14:09;2.50;;;1.27;;
5785;SDS011;2919;48.630;9.000;2022-10-17T04:16:35;2.73;;;1.20;;
5785;SDS011;2919;48.630;9.000;2022-10-17T04:19:01;2.13;;;1.10;;
5785;SDS011;2919;48.630;9.000;2022-10-17T04:21:27;2.00;;;1.20;;
5785;SDS011;2919;48.630;9.000;2022-10-17T04:23:57;3.00;;;1.40;;
5785;SDS011;2919;48.630;9.000;2022-10-17T04:26:24;1.93;;;1.27;;
5785;SDS011;2919;48.630;9.000;2022-10-17T04:28:51;3.47;;;1.07;;
5785;SDS011;2919;48.630;9.000;2022-10-17T04:31:17;3.40;;;1.37;;
5785;SDS011;2919;48.630;9.000;2022-10-17T04:33:45;5.27;;;1.43;;
5785;SDS011;2919;48.630;9.000;2022-10-17T04:36:13;1.87;;;1.20;;
5785;SDS011;2919;48.630;9.000;2022-10-17T04:38:40;2.93;;;1.00;;
5785;SDS011;2919;48.630;9.000;2022-10-17T04:41:06;4.00;;;1.60;;
5785;SDS011;2919;48.630;9.000;2022-10-17T04:43:35;3.37;;;1.73;;
5785;SDS011;2919;48.630;9.000;2022-10-17T04:46:03;3.10;;;1.23;;
5785;SDS011;2919;48.630;9.000;2022-10-17T04:48:30;3.63;;;1.70;;
5785;SDS011;2919;48.630;9.000;2022-10-17T04:51:00;4.07;;;1.37;;
5785;SDS011;2919;48.630;9.000;2022-10-17T04:53:28;2.47;;;1.40;;
5785;SDS011;2919;48.630;9.000;2022-10-17T04:55:55;3.07;;;1.53;;
5785;SDS011;2919;48.630;9.000;2022-10-17T04:58:21;4.40;;;1.87;;
5785;SDS011;2919;48.630;9.000;2022-10-17T05:00:46;11.43;;;1.93;;
5785;SDS011;2919;48.630;9.000;2022-10-17T05:03:12;6.07;;;1.97;;
5785;SDS011;2919;48.630;9.000;2022-10-17T05:05:39;4.13;;;1.40;;
5785;SDS011;2919;48.630;9.000;2022-10-17T05:08:05;4.17;;;2.00;;
5785;SDS011;2919;48.630;9.000;2022-10-17T05:10:39;6.23;;;2.10;;
5785;SDS011;2919;48.630;9.000;2022-10-17T05:13:06;3.53;;;2.30;;
5785;SDS011;2919;48.630;9.000;2022-10-17T05:15:32;3.53;;;2.30;;
5785;SDS011;2919;48.630;9.000;2022-10-17T05:17:59;3.37;;;1.80;;
5785;SDS011;2919;48.630;9.000;2022-10-17T05:20:24;3.90;;;2.10;;
5785;SDS011;2919;48.630;9.000;2022-10-17T05:22:50;6.23;;;2.07;;
5785;SDS011;2919;48.630;9.000;2022-10-17T05:25:16;5.27;;;2.03;;
5785;SDS011;2919;48.630;9.000;2022-10-17T05:27:42;3.30;;;1.47;;
5785;SDS011;2919;48.630;9.000;2022-10-17T05:30:07;4.50;;;2.00;;
5785;SDS011;2919;48.630;9.000;2022-10-17T05:32:33;7.23;;;1.67;;
5785;SDS011;2919;48.630;9.000;2022-10-17T05:34:59;5.97;;;2.27;;
5785;SDS011;2919;48.630;9.000;2022-10-17T05:37:25;13.83;;;2.30;;
5785;SDS011;2919;48.630;9.000;2022-10-17T05:39:52;4.33;;;1.47;;
5785;SDS011;2919;48.630;9.000;2022-10-17T05:42:18;3.83;;;1.87;;
5785;SDS011;2919;48.630;9.000;2022-10-17T05:44:44;4.53;;;2.10;;
5785;SDS011;2919;48.630;9.000;2022-10-17T05:47:09;2.83;;;1.50;;
5785;SDS011;2919;48.630;9.000;2022-10-17T05:49:35;3.73;;;1.67;;
5785;SDS011;2919;48.630;9.000;2022-10-17T05:52:01;2.90;;;1.73;;
5785;SDS011;2919;48.630;9.000;2022-10-17T05:54:26;8.67;;;2.30;;
5785;SDS011;2919;48.630;9.000;2022-10-17T05:56:52;3.00;;;1.77;;
5785;SDS011;2919;48.630;9.000;2022-10-17T05:59:19;4.57;;;2.30;;
5785;SDS011;2919;48.630;9.000;2022-10-17T06:01:45;6.10;;;2.43;;
5785;SDS011;2919;48.630;9.000;2022-10-17T06:04:11;5.50;;;1.40;;
5785;SDS011;2919;48.630;9.000;2022-10-17T06:06:37;3.17;;;1.43;;
5785;SDS011;2919;48.630;9.000;2022-10-17T06:09:04;2.57;;;1.10;;
5785;SDS011;2919;48.630;9.000;2022-10-17T06:11:31;4.97;;;2.13;;
5785;SDS011;2919;48.630;9.000;2022-10-17T06:13:58;2.97;;;1.50;;
5785;SDS011;2919;48.630;9.000;2022-10-17T06:16:23;5.47;;;2.43;;
5785;SDS011;2919;48.630;9.000;2022-10-17T06:18:49;2.90;;;1.77;;
5785;SDS011;2919;48.630;9.000;2022-10-17T06:21:16;2.90;;;1.57;;
5785;SDS011;2919;48.630;9.000;2022-10-17T06:23:45;5.40;;;2.40;;
5785;SDS011;2919;48.630;9.000;2022-10-17T06:26:11;5.77;;;2.23;;
5785;SDS011;2919;48.630;9.000;2022-10-17T06:28:37;3.60;;;1.70;;
5785;SDS011;2919;48.630;9.000;2022-10-17T06:31:06;4.17;;;2.27;;
5785;SDS011;2919;48.630;9.000;2022-10-17T06:33:34;3.80;;;2.70;;
5785;SDS011;2919;48.630;9.000;2022-10-17T06:36:00;4.17;;;2.73;;
5785;SDS011;2919;48.630;9.000;2022-10-17T06:38:27;3.60;;;2.37;;
5785;SDS011;2919;48.630;9.000;2022-10-17T06:40:53;4.13;;;1.97;;
5785;SDS011;2919;48.630;9.000;2022-10-17T06:43:21;7.33;;;3.13;;
5785;SDS011;2919;48.630;9.000;2022-10-17T06:45:47;9.50;;;4.07;;
5785;SDS011;2919;48.630;9.000;2022-10-17T06:48:12;7.50;;;3.50;;
5785;SDS011;2919;48.630;9.000;2022-10-17T06:50:38;8.67;;;2.63;;
5785;SDS011;2919;48.630;9.000;2022-10-17T06:53:03;5.37;;;3.00;;
5785;SDS011;2919;48.630;9.000;2022-10-17T06:55:30;4.23;;;1.97;;
5785;SDS011;2919;48.630;9.000;2022-10-17T06:57:56;4.17;;;2.80;;
5785;SDS011;2919;48.630;9.000;2022-10-17T07:00:22;4.40;;;2.67;;
5785;SDS011;2919;48.630;9.000;2022-10-17T07:02:48;5.23;;;2.83;;
5785;SDS011;2919;48.630;9.000;2022-10-17T07:05:13;4.70;;;2.00;;
5785;SDS011;2919;48.630;9.000;2022-10-17T07:07:39;3.80;;;2.60;;
5785;SDS011;2919;48.630;9.000;2022-10-17T07:10:05;4.20;;;2.00;;
5785;SDS011;2919;48.630;9.000;2022-10-17T07:12:33;4.87;;;2.07;;
5785;SDS011;2919;48.630;9.000;2022-10-17T07:15:00;4.77;;;1.83;;
5785;SDS011;2919;48.630;9.000;2022-10-17T07:17:26;4.37;;;1.80;;
5785;SDS011;2919;48.630;9.000;2022-10-17T07:19:52;3.50;;;1.50;;
5785;SDS011;2919;48.630;9.000;2022-10-17T07:22:17;6.80;;;2.23;;
5785;SDS011;2919;48.630;9.000;2022-10-17T07:24:43;2.80;;;1.70;;
5785;SDS011;2919;48.630;9.000;2022-10-17T07:27:09;12.17;;;1.80;;
5785;SDS011;2919;48.630;9.000;2022-10-17T07:29:34;3.70;;;1.80;;
5785;SDS011;2919;48.630;9.000;2022-10-17T07:32:00;3.70;;;1.60;;
5785;SDS011;2919;48.630;9.000;2022-10-17T07:34:27;2.83;;;1.60;;
5785;SDS011;2919;48.630;9.000;2022-10-17T07:36:55;4.63;;;1.63;;
5785;SDS011;2919;48.630;9.000;2022-10-17T07:39:21;2.77;;;1.57;;
5785;SDS011;2919;48.630;9.000;2022-10-17T07:41:47;2.13;;;1.20;;
5785;SDS011;2919;48.630;9.000;2022-10-17T07:44:13;2.07;;;1.00;;
5785;SDS011;2919;48.630;9.000;2022-10-17T07:46:39;2.17;;;1.00;;
5785;SDS011;2919;48.630;9.000;2022-10-17T07:49:04;4.70;;;1.33;;
5785;SDS011;2919;48.630;9.000;2022-10-17T07:51:30;2.80;;;1.03;;
5785;SDS011;2919;48.630;9.000;2022-10-17T07:53:56;4.30;;;1.40;;
5785;SDS011;2919;48.630;9.000;2022-10-17T07:56:21;1.60;;;0.90;;
5785;SDS011;2919;48.630;9.000;2022-10-17T07:58:49;1.93;;;1.20;;
5785;SDS011;2919;48.630;9.000;2022-10-17T08:01:15;2.63;;;1.10;;
5785;SDS011;2919;48.630;9.000;2022-10-17T08:03:44;1.77;;;0.90;;
5785;SDS011;2919;48.630;9.000;2022-10-17T08:06:11;3.40;;;1.00;;
5785;SDS011;2919;48.630;9.000;2022-10-17T08:08:37;3.63;;;1.80;;
5785;SDS011;2919;48.630;9.000;2022-10-17T08:11:04;2.83;;;0.90;;
5785;SDS011;2919;48.630;9.000;2022-10-17T08:13:31;7.40;;;1.17;;
5785;SDS011;2919;48.630;9.000;2022-10-17T08:15:59;2.80;;;1.10;;
5785;SDS011;2919;48.630;9.000;2022-10-17T08:18:28;2.43;;;1.27;;
5785;SDS011;2919;48.630;9.000;2022-10-17T08:20:57;1.73;;;0.87;;
5785;SDS011;2919;48.630;9.000;2022-10-17T08:23:24;5.20;;;1.80;;
5785;SDS011;2919;48.630;9.000;2022-10-17T08:25:49;2.97;;;1.17;;
5785;SDS011;2919;48.630;9.000;2022-10-17T08:28:15;1.87;;;1.00;;
5785;SDS011;2919;48.630;9.000;2022-10-17T08:30:41;1.70;;;0.90;;
5785;SDS011;2919;48.630;9.000;2022-10-17T08:33:06;2.07;;;1.10;;
5785;SDS011;2919;48.630;9.000;2022-10-17T08:35:32;7.73;;;1.60;;
5785;SDS011;2919;48.630;9.000;2022-10-17T08:37:58;2.10;;;1.00;;
5785;SDS011;2919;48.630;9.000;2022-10-17T08:40:26;1.63;;;0.73;;
5785;SDS011;2919;48.630;9.000;2022-10-17T08:43:15;1.60;;;0.77;;
5785;SDS011;2919;48.630;9.000;2022-10-17T08:45:55;2.30;;;1.20;;
5785;SDS011;2919;48.630;9.000;2022-10-17T08:48:24;2.63;;;0.93;;
5785;SDS011;2919;48.630;9.000;2022-10-17T08:50:57;2.40;;;0.97;;
5785;SDS011;2919;48.630;9.000;2022-10-17T08:53:37;3.63;;;1.57;;
5785;SDS011;2919;48.630;9.000;2022-10-17T08:56:12;1.57;;;0.73;;
5785;SDS011;2919;48.630;9.000;2022-10-17T08:58:40;2.10;;;1.20;;
5785;SDS011;2919;48.630;9.000;2022-10-17T09:01:28;3.00;;;1.20;;
5785;SDS011;2919;48.630;9.000;2022-10-17T09:06:55;2.10;;;0.97;;
5785;SDS011;2919;48.630;9.000;2022-10-17T09:12:13;3.27;;;1.40;;
5785;SDS011;2919;48.630;9.000;2022-10-17T09:20:18;5.50;;;1.00;;
5785;SDS011;2919;48.630;9.000;2022-10-17T09:22:48;1.73;;;0.83;;
5785;SDS011;2919;48.630;9.000;2022-10-17T09:25:17;2.20;;;1.00;;
5785;SDS011;2919;48.630;9.000;2022-10-17T09:28:46;3.67;;;1.10;;
5785;SDS011;2919;48.630;9.000;2022-10-17T09:30:55;3.07;;;1.53;;
5785;SDS011;2919;48.630;9.000;2022-10-17T09:33:38;3.03;;;1.30;;
5785;SDS011;2919;48.630;9.000;2022-10-17T09:36:18;2.40;;;1.20;;
5785;SDS011;2919;48.630;9.000;2022-10-17T09:38:51;1.93;;;1.00;;
5785;SDS011;2919;48.630;9.000;2022-10-17T09:49:24;3.63;;;1.33;;
5785;SDS011;2919;48.630;9.000;2022-10-17T09:52:00;7.37;;;1.37;;
5785;SDS011;2919;48.630;9.000;2022-10-17T09:54:44;2.73;;;1.23;;
5785;SDS011;2919;48.630;9.000;2022-10-17T09:57:12;2.20;;;1.00;;
5785;SDS011;2919;48.630;9.000;2022-10-17T09:59:41;7.20;;;1.30;;
5785;SDS011;2919;48.630;9.000;2022-10-17T10:04:50;1.90;;;0.87;;
5785;SDS011;2919;48.630;9.000;2022-10-17T10:07:21;2.50;;;1.20;;
5785;SDS011;2919;48.630;9.000;2022-10-17T10:09:48;1.50;;;0.63;;
5785;SDS011;2919;48.630;9.000;2022-10-17T10:12:19;1.80;;;0.80;;
5785;SDS011;2919;48.630;9.000;2022-10-17T10:14:53;15.10;;;2.13;;
5785;SDS011;2919;48.630;9.000;2022-10-17T10:19:51;3.00;;;1.10;;
5785;SDS011;2919;48.630;9.000;2022-10-17T10:22:18;4.97;;;1.30;;
5785;SDS011;2919;48.630;9.000;2022-10-17T10:24:59;1.50;;;0.60;;
5785;SDS011;2919;48.630;9.000;2022-10-17T10:27:32;3.60;;;1.00;;
5785;SDS011;2919;48.630;9.000;2022-10-17T10:29:58;2.60;;;1.00;;
5785;SDS011;2919;48.630;9.000;2022-10-17T10:32:25;3.57;;;1.30;;
5785;SDS011;2919;48.630;9.000;2022-10-17T10:37:31;3.10;;;1.20;;
5785;SDS011;2919;48.630;9.000;2022-10-17T10:40:05;1.67;;;0.77;;
5785;SDS011;2919;48.630;9.000;2022-10-17T10:42:39;6.53;;;1.23;;
5785;SDS011;2919;48.630;9.000;2022-10-17T10:47:49;1.93;;;0.87;;
5785;SDS011;2919;48.630;9.000;2022-10-17T10:50:24;2.00;;;1.07;;
5785;SDS011;2919;48.630;9.000;2022-10-17T10:52:55;2.57;;;1.03;;
5785;SDS011;2919;48.630;9.000;2022-10-17T10:55:42;2.30;;;1.00;;
5785;SDS011;2919;48.630;9.000;2022-10-17T11:01:08;2.70;;;1.00;;
5785;SDS011;2919;48.630;9.000;2022-10-17T11:06:20;2.43;;;1.03;;
5785;SDS011;2919;48.630;9.000;2022-10-17T11:08:55;1.70;;;0.90;;
5785;SDS011;2919;48.630;9.000;2022-10-17T11:11:38;3.43;;;1.50;;
5785;SDS011;2919;48.630;9.000;2022-10-17T11:22:53;6.90;;;1.43;;
5785;SDS011;2919;48.630;9.000;2022-10-17T11:28:01;5.40;;;0.90;;
5785;SDS011;2919;48.630;9.000;2022-10-17T11:30:28;5.73;;;1.30;;
5785;SDS011;2919;48.630;9.000;2022-10-17T11:33:02;2.23;;;0.70;;
5785;SDS011;2919;48.630;9.000;2022-10-17T11:35:31;2.93;;;0.87;;
5785;SDS011;2919;48.630;9.000;2022-10-17T11:41:19;2.23;;;0.90;;
5785;SDS011;2919;48.630;9.000;2022-10-17T11:43:56;3.30;;;1.40;;
5785;SDS011;2919;48.630;9.000;2022-10-17T11:46:26;2.60;;;1.33;;
5785;SDS011;2919;48.630;9.000;2022-10-17T11:51:36;4.53;;;1.37;;
5785;SDS011;2919;48.630;9.000;2022-10-17T11:54:28;2.30;;;1.20;;
5785;SDS011;2919;48.630;9.000;2022-10-17T12:02:59;2.00;;;0.90;;
5785;SDS011;2919;48.630;9.000;2022-10-17T12:15:57;5.70;;;1.10;;
5785;SDS011;2919;48.630;9.000;2022-10-17T12:18:47;4.03;;;0.90;;
5785;SDS011;2919;48.630;9.000;2022-10-17T12:21:16;1.93;;;0.90;;
5785;SDS011;2919;48.630;9.000;2022-10-17T12:23:45;2.23;;;1.00;;
5785;SDS011;2919;48.630;9.000;2022-10-17T12:26:24;2.87;;;0.93;;
5785;SDS011;2919;48.630;9.000;2022-10-17T12:28:51;3.10;;;1.23;;
5785;SDS011;2919;48.630;9.000;2022-10-17T12:34:02;1.93;;;0.93;;
5785;SDS011;2919;48.630;9.000;2022-10-17T12:57:29;3.10;;;0.80;;
5785;SDS011;2919;48.630;9.000;2022-10-17T13:03:00;1.80;;;0.80;;
5785;SDS011;2919;48.630;9.000;2022-10-17T13:05:35;1.90;;;0.73;;
5785;SDS011;2919;48.630;9.000;2022-10-17T13:08:04;2.67;;;0.93;;
5785;SDS011;2919;48.630;9.000;2022-10-17T13:10:33;1.80;;;0.60;;
5785;SDS011;2919;48.630;9.000;2022-10-17T13:13:03;1.60;;;0.63;;
5785;SDS011;2919;48.630;9.000;2022-10-17T13:15:44;4.10;;;1.90;;
5785;SDS011;2919;48.630;9.000;2022-10-17T13:18:15;2.80;;;1.17;;
5785;SDS011;2919;48.630;9.000;2022-10-17T13:20:52;1.40;;;0.60;;
5785;SDS011;2919;48.630;9.000;2022-10-17T13:23:30;2.20;;;0.90;;
5785;SDS011;2919;48.630;9.000;2022-10-17T13:26:05;5.50;;;1.40;;
5785;SDS011;2919;48.630;9.000;2022-10-17T13:28:34;1.93;;;0.93;;
5785;SDS011;2919;48.630;9.000;2022-10-17T13:31:00;2.77;;;0.90;;
5785;SDS011;2919;48.630;9.000;2022-10-17T13:33:36;18.77;;;1.33;;
5785;SDS011;2919;48.630;9.000;2022-10-17T13:36:05;2.03;;;0.80;;
5785;SDS011;2919;48.630;9.000;2022-10-17T13:38:37;3.00;;;0.93;;
5785;SDS011;2919;48.630;9.000;2022-10-17T13:41:03;5.40;;;1.20;;
5785;SDS011;2919;48.630;9.000;2022-10-17T13:43:37;1.70;;;0.87;;
5785;SDS011;2919;48.630;9.000;2022-10-17T13:46:03;4.27;;;1.00;;
5785;SDS011;2919;48.630;9.000;2022-10-17T13:48:31;4.07;;;0.87;;
5785;SDS011;2919;48.630;9.000;2022-10-17T13:51:01;1.80;;;0.70;;
5785;SDS011;2919;48.630;9.000;2022-10-17T13:53:36;4.13;;;0.90;;
5785;SDS011;2919;48.630;9.000;2022-10-17T14:01:13;3.70;;;1.00;;
5785;SDS011;2919;48.630;9.000;2022-10-17T14:03:40;1.97;;;0.93;;
5785;SDS011;2919;48.630;9.000;2022-10-17T14:06:10;2.00;;;0.83;;
5785;SDS011;2919;48.630;9.000;2022-10-17T14:08:37;2.33;;;0.87;;
5785;SDS011;2919;48.630;9.000;2022-10-17T14:11:14;1.90;;;1.00;;
5785;SDS011;2919;48.630;9.000;2022-10-17T14:13:47;1.97;;;1.00;;
5785;SDS011;2919;48.630;9.000;2022-10-17T14:16:15;1.70;;;0.80;;
5785;SDS011;2919;48.630;9.000;2022-10-17T14:18:40;3.60;;;1.17;;
5785;SDS011;2919;48.630;9.000;2022-10-17T14:21:14;2.17;;;0.93;;
5785;SDS011;2919;48.630;9.000;2022-10-17T14:23:46;3.67;;;1.10;;
5785;SDS011;2919;48.630;9.000;2022-10-17T14:26:16;1.60;;;0.90;;
5785;SDS011;2919;48.630;9.000;2022-10-17T14:28:46;1.70;;;0.90;;
5785;SDS011;2919;48.630;9.000;2022-10-17T14:31:19;1.70;;;0.80;;
5785;SDS011;2919;48.630;9.000;2022-10-17T14:33:49;2.50;;;1.00;;
5785;SDS011;2919;48.630;9.000;2022-10-17T14:36:18;3.43;;;1.27;;
5785;SDS011;2919;48.630;9.000;2022-10-17T14:38:45;8.20;;;1.13;;
5785;SDS011;2919;48.630;9.000;2022-10-17T14:41:18;5.90;;;1.03;;
5785;SDS011;2919;48.630;9.000;2022-10-17T14:43:56;1.90;;;0.90;;
5785;SDS011;2919;48.630;9.000;2022-10-17T14:46:27;2.37;;;0.80;;
5785;SDS011;2919;48.630;9.000;2022-10-17T14:49:02;2.37;;;1.00;;
5785;SDS011;2919;48.630;9.000;2022-10-17T14:51:40;1.73;;;0.90;;
5785;SDS011;2919;48.630;9.000;2022-10-17T14:54:41;2.70;;;0.93;;
5785;SDS011;2919;48.630;9.000;2022-10-17T14:57:16;2.13;;;0.93;;
5785;SDS011;2919;48.630;9.000;2022-10-17T14:59:45;2.87;;;1.23;;
5785;SDS011;2919;48.630;9.000;2022-10-17T15:02:12;1.70;;;0.70;;
5785;SDS011;2919;48.630;9.000;2022-10-17T15:04:37;2.53;;;0.90;;
5785;SDS011;2919;48.630;9.000;2022-10-17T15:07:03;4.00;;;1.63;;
5785;SDS011;2919;48.630;9.000;2022-10-17T15:09:29;1.90;;;0.83;;
5785;SDS011;2919;48.630;9.000;2022-10-17T15:11:55;3.70;;;1.20;;
5785;SDS011;2919;48.630;9.000;2022-10-17T15:14:26;1.40;;;0.60;;
5785;SDS011;2919;48.630;9.000;2022-10-17T15:16:52;2.43;;;1.07;;
5785;SDS011;2919;48.630;9.000;2022-10-17T15:19:18;1.80;;;0.90;;
5785;SDS011;2919;48.630;9.000;2022-10-17T15:21:43;3.97;;;1.17;;
5785;SDS011;2919;48.630;9.000;2022-10-17T15:24:09;6.60;;;0.93;;
5785;SDS011;2919;48.630;9.000;2022-10-17T15:26:34;3.93;;;1.20;;
5785;SDS011;2919;48.630;9.000;2022-10-17T15:29:00;2.90;;;1.13;;
5785;SDS011;2919;48.630;9.000;2022-10-17T15:31:28;1.83;;;0.77;;
5785;SDS011;2919;48.630;9.000;2022-10-17T15:33:55;2.00;;;0.90;;
5785;SDS011;2919;48.630;9.000;2022-10-17T15:36:25;1.90;;;1.17;;
5785;SDS011;2919;48.630;9.000;2022-10-17T15:38:53;1.87;;;0.73;;
5785;SDS011;2919;48.630;9.000;2022-10-17T15:41:24;2.10;;;0.90;;
5785;SDS011;2919;48.630;9.000;2022-10-17T15:43:50;1.90;;;1.00;;
5785;SDS011;2919;48.630;9.000;2022-10-17T15:46:17;2.03;;;0.90;;
5785;SDS011;2919;48.630;9.000;2022-10-17T15:48:51;2.13;;;0.90;;
5785;SDS011;2919;48.630;9.000;2022-10-17T15:51:18;5.53;;;0.77;;
5785;SDS011;2919;48.630;9.000;2022-10-17T15:53:44;5.43;;;1.20;;
5785;SDS011;2919;48.630;9.000;2022-10-17T15:56:31;2.30;;;0.90;;
5785;SDS011;2919;48.630;9.000;2022-10-17T15:58:59;2.00;;;1.10;;
5785;SDS011;2919;48.630;9.000;2022-10-17T16:01:31;4.00;;;1.40;;
5785;SDS011;2919;48.630;9.000;2022-10-17T16:03:57;3.17;;;1.10;;
5785;SDS011;2919;48.630;9.000;2022-10-17T16:06:23;8.00;;;1.50;;
5785;SDS011;2919;48.630;9.000;2022-10-17T16:08:49;3.03;;;1.07;;
5785;SDS011;2919;48.630;9.000;2022-10-17T16:11:38;5.30;;;1.27;;
5785;SDS011;2919;48.630;9.000;2022-10-17T16:14:06;2.63;;;1.07;;
5785;SDS011;2919;48.630;9.000;2022-10-17T16:16:36;3.50;;;1.73;;
5785;SDS011;2919;48.630;9.000;2022-10-17T16:19:02;5.20;;;1.00;;
5785;SDS011;2919;48.630;9.000;2022-10-17T16:21:30;3.20;;;1.33;;
5785;SDS011;2919;48.630;9.000;2022-10-17T16:23:57;10.87;;;1.57;;
5785;SDS011;2919;48.630;9.000;2022-10-17T16:26:23;6.40;;;1.30;;
5785;SDS011;2919;48.630;9.000;2022-10-17T16:28:49;3.67;;;1.27;;
5785;SDS011;2919;48.630;9.000;2022-10-17T16:31:19;2.57;;;1.20;;
5785;SDS011;2919;48.630;9.000;2022-10-17T16:33:54;2.57;;;1.40;;
5785;SDS011;2919;48.630;9.000;2022-10-17T16:36:21;6.47;;;1.67;;
5785;SDS011;2919;48.630;9.000;2022-10-17T16:38:47;3.90;;;1.30;;
5785;SDS011;2919;48.630;9.000;2022-10-17T16:41:38;2.20;;;1.00;;
5785;SDS011;2919;48.630;9.000;2022-10-17T16:44:05;7.67;;;2.20;;
5785;SDS011;2919;48.630;9.000;2022-10-17T16:46:32;2.50;;;1.23;;
5785;SDS011;2919;48.630;9.000;2022-10-17T16:48:59;4.30;;;1.67;;
5785;SDS011;2919;48.630;9.000;2022-10-17T16:51:25;4.43;;;1.40;;
5785;SDS011;2919;48.630;9.000;2022-10-17T16:53:53;3.10;;;1.50;;
5785;SDS011;2919;48.630;9.000;2022-10-17T16:56:21;2.50;;;1.07;;
5785;SDS011;2919;48.630;9.000;2022-10-17T16:58:48;4.37;;;1.57;;
5785;SDS011;2919;48.630;9.000;2022-10-17T17:01:18;4.10;;;1.77;;
5785;SDS011;2919;48.630;9.000;2022-10-17T17:03:45;5.50;;;2.13;;
5785;SDS011;2919;48.630;9.000;2022-10-17T17:06:13;2.57;;;0.93;;
5785;SDS011;2919;48.630;9.000;2022-10-17T17:08:42;4.63;;;1.77;;
5785;SDS011;2919;48.630;9.000;2022-10-17T17:11:08;2.37;;;1.17;;
5785;SDS011;2919;48.630;9.000;2022-10-17T17:13:35;2.90;;;1.33;;
5785;SDS011;2919;48.630;9.000;2022-10-17T17:16:02;4.23;;;1.10;;
5785;SDS011;2919;48.630;9.000;2022-10-17T17:18:29;4.33;;;1.67;;
5785;SDS011;2919;48.630;9.000;2022-10-17T17:20:59;7.83;;;2.30;;
5785;SDS011;2919;48.630;9.000;2022-10-17T17:23:26;3.77;;;2.13;;
5785;SDS011;2919;48.630;9.000;2022-10-17T17:25:58;5.83;;;1.93;;
5785;SDS011;2919;48.630;9.000;2022-10-17T17:28:25;5.83;;;2.60;;
5785;SDS011;2919;48.630;9.000;2022-10-17T17:30:52;18.93;;;2.70;;
5785;SDS011;2919;48.630;9.000;2022-10-17T17:33:18;4.93;;;2.27;;
5785;SDS011;2919;48.630;9.000;2022-10-17T17:35:45;5.43;;;2.33;;
5785;SDS011;2919;48.630;9.000;2022-10-17T17:38:10;7.73;;;2.50;;